sensor_id;sensor_type;location;lat;lon;timestamp;P1;durP1;ratioP1;P2;durP2;ratioP2
44328;SDS011;30039;51.462;6.892;2024-03-25T00:02:02;21.27;;;6.43;;
44328;SDS011;30039;51.462;6.892;2024-03-25T00:04:47;20.77;;;7.13;;
44328;SDS011;30039;51.462;6.892;2024-03-25T00:07:33;21.17;;;7.57;;
44328;SDS011;30039;51.462;6.892;2024-03-25T00:10:18;20.38;;;7.47;;
44328;SDS011;30039;51.462;6.892;2024-03-25T00:13:05;26.85;;;9.13;;
44328;SDS011;30039;51.462;6.892;2024-03-25T00:15:51;30.00;;;9.77;;
44328;SDS011;30039;51.462;6.892;2024-03-25T00:18:37;24.00;;;10.05;;
44328;SDS011;30039;51.462;6.892;2024-03-25T00:21:22;23.67;;;10.60;;
44328;SDS011;30039;51.462;6.892;2024-03-25T00:24:08;23.65;;;10.25;;
44328;SDS011;30039;51.462;6.892;2024-03-25T00:26:53;26.20;;;11.10;;
44328;SDS011;30039;51.462;6.892;2024-03-25T00:29:39;27.98;;;11.55;;
44328;SDS011;30039;51.462;6.892;2024-03-25T00:32:24;23.30;;;11.82;;
44328;SDS011;30039;51.462;6.892;2024-03-25T00:35:10;27.50;;;12.82;;
44328;SDS011;30039;51.462;6.892;2024-03-25T00:37:56;30.77;;;14.15;;
44328;SDS011;30039;51.462;6.892;2024-03-25T00:40:41;32.10;;;13.68;;
44328;SDS011;30039;51.462;6.892;2024-03-25T00:43:27;30.25;;;13.40;;
44328;SDS011;30039;51.462;6.892;2024-03-25T00:46:12;30.13;;;13.77;;
44328;SDS011;30039;51.462;6.892;2024-03-25T00:48:58;32.70;;;14.15;;
44328;SDS011;30039;51.462;6.892;2024-03-25T00:51:43;24.45;;;13.93;;
44328;SDS011;30039;51.462;6.892;2024-03-25T00:54:29;30.58;;;12.55;;
44328;SDS011;30039;51.462;6.892;2024-03-25T00:57:14;32.88;;;11.60;;
44328;SDS011;30039;51.462;6.892;2024-03-25T01:00:00;24.77;;;10.75;;
44328;SDS011;30039;51.462;6.892;2024-03-25T01:02:45;28.73;;;9.57;;
44328;SDS011;30039;51.462;6.892;2024-03-25T01:05:31;22.88;;;8.07;;
44328;SDS011;30039;51.462;6.892;2024-03-25T01:08:16;21.92;;;6.55;;
44328;SDS011;30039;51.462;6.892;2024-03-25T01:11:02;17.55;;;6.68;;
44328;SDS011;30039;51.462;6.892;2024-03-25T01:13:48;22.80;;;6.05;;
44328;SDS011;30039;51.462;6.892;2024-03-25T01:16:33;18.48;;;5.72;;
44328;SDS011;30039;51.462;6.892;2024-03-25T01:19:19;14.15;;;4.68;;
44328;SDS011;30039;51.462;6.892;2024-03-25T01:22:06;21.58;;;4.28;;
44328;SDS011;30039;51.462;6.892;2024-03-25T01:24:51;16.75;;;3.80;;
44328;SDS011;30039;51.462;6.892;2024-03-25T01:27:37;17.90;;;3.83;;
44328;SDS011;30039;51.462;6.892;2024-03-25T01:30:22;16.48;;;3.50;;
44328;SDS011;30039;51.462;6.892;2024-03-25T01:33:08;14.70;;;3.35;;
44328;SDS011;30039;51.462;6.892;2024-03-25T01:35:54;17.23;;;3.33;;
44328;SDS011;30039;51.462;6.892;2024-03-25T01:38:41;15.23;;;2.85;;
44328;SDS011;30039;51.462;6.892;2024-03-25T01:41:26;15.48;;;3.60;;
44328;SDS011;30039;51.462;6.892;2024-03-25T01:44:12;8.95;;;3.17;;
44328;SDS011;30039;51.462;6.892;2024-03-25T01:46:57;13.73;;;3.50;;
44328;SDS011;30039;51.462;6.892;2024-03-25T01:49:43;12.85;;;3.47;;
44328;SDS011;30039;51.462;6.892;2024-03-25T01:52:28;18.83;;;4.05;;
44328;SDS011;30039;51.462;6.892;2024-03-25T01:55:17;15.38;;;3.45;;
44328;SDS011;30039;51.462;6.892;2024-03-25T01:58:04;21.00;;;3.70;;
44328;SDS011;30039;51.462;6.892;2024-03-25T02:00:50;16.58;;;3.53;;
44328;SDS011;30039;51.462;6.892;2024-03-25T02:03:36;13.23;;;3.20;;
44328;SDS011;30039;51.462;6.892;2024-03-25T02:06:23;14.77;;;3.42;;
44328;SDS011;30039;51.462;6.892;2024-03-25T02:09:09;14.40;;;3.20;;
44328;SDS011;30039;51.462;6.892;2024-03-25T02:11:55;21.08;;;3.53;;
44328;SDS011;30039;51.462;6.892;2024-03-25T02:14:41;15.45;;;3.33;;
44328;SDS011;30039;51.462;6.892;2024-03-25T02:17:29;15.40;;;3.33;;
44328;SDS011;30039;51.462;6.892;2024-03-25T02:20:14;13.82;;;3.00;;
44328;SDS011;30039;51.462;6.892;2024-03-25T02:23:01;14.02;;;3.03;;
44328;SDS011;30039;51.462;6.892;2024-03-25T02:25:50;20.33;;;3.67;;
44328;SDS011;30039;51.462;6.892;2024-03-25T02:28:36;12.70;;;2.95;;
44328;SDS011;30039;51.462;6.892;2024-03-25T02:31:21;11.05;;;2.85;;
44328;SDS011;30039;51.462;6.892;2024-03-25T02:34:07;10.55;;;2.88;;
44328;SDS011;30039;51.462;6.892;2024-03-25T02:36:52;16.45;;;3.40;;
44328;SDS011;30039;51.462;6.892;2024-03-25T02:39:38;18.00;;;3.08;;
44328;SDS011;30039;51.462;6.892;2024-03-25T02:42:24;15.18;;;2.72;;
44328;SDS011;30039;51.462;6.892;2024-03-25T02:45:11;15.32;;;2.88;;
44328;SDS011;30039;51.462;6.892;2024-03-25T02:47:57;17.48;;;3.55;;
44328;SDS011;30039;51.462;6.892;2024-03-25T02:50:42;12.20;;;3.00;;
44328;SDS011;30039;51.462;6.892;2024-03-25T02:53:28;15.60;;;3.40;;
44328;SDS011;30039;51.462;6.892;2024-03-25T02:56:13;12.93;;;3.00;;
44328;SDS011;30039;51.462;6.892;2024-03-25T02:58:59;17.13;;;3.58;;
44328;SDS011;30039;51.462;6.892;2024-03-25T03:01:44;20.90;;;4.40;;
44328;SDS011;30039;51.462;6.892;2024-03-25T03:04:30;13.57;;;2.90;;
44328;SDS011;30039;51.462;6.892;2024-03-25T03:07:15;18.35;;;3.15;;
44328;SDS011;30039;51.462;6.892;2024-03-25T03:10:01;21.20;;;3.80;;
44328;SDS011;30039;51.462;6.892;2024-03-25T03:12:46;17.17;;;3.38;;
44328;SDS011;30039;51.462;6.892;2024-03-25T03:15:32;17.42;;;3.97;;
44328;SDS011;30039;51.462;6.892;2024-03-25T03:18:17;15.18;;;3.03;;
44328;SDS011;30039;51.462;6.892;2024-03-25T03:21:03;19.50;;;3.45;;
44328;SDS011;30039;51.462;6.892;2024-03-25T03:23:48;17.02;;;3.88;;
44328;SDS011;30039;51.462;6.892;2024-03-25T03:26:34;14.85;;;3.55;;
44328;SDS011;30039;51.462;6.892;2024-03-25T03:29:19;24.40;;;3.75;;
44328;SDS011;30039;51.462;6.892;2024-03-25T03:32:05;18.45;;;3.70;;
44328;SDS011;30039;51.462;6.892;2024-03-25T03:34:51;12.50;;;3.60;;
44328;SDS011;30039;51.462;6.892;2024-03-25T03:37:36;16.92;;;3.83;;
44328;SDS011;30039;51.462;6.892;2024-03-25T03:40:22;15.38;;;3.95;;
44328;SDS011;30039;51.462;6.892;2024-03-25T03:43:07;20.50;;;4.30;;
44328;SDS011;30039;51.462;6.892;2024-03-25T03:45:53;19.35;;;4.53;;
44328;SDS011;30039;51.462;6.892;2024-03-25T03:48:38;14.52;;;4.43;;
44328;SDS011;30039;51.462;6.892;2024-03-25T03:51:24;14.80;;;3.95;;
44328;SDS011;30039;51.462;6.892;2024-03-25T03:54:09;20.63;;;4.20;;
44328;SDS011;30039;51.462;6.892;2024-03-25T03:56:55;24.17;;;4.50;;
44328;SDS011;30039;51.462;6.892;2024-03-25T03:59:40;16.05;;;3.92;;
44328;SDS011;30039;51.462;6.892;2024-03-25T04:02:27;16.85;;;4.43;;
44328;SDS011;30039;51.462;6.892;2024-03-25T04:05:12;18.95;;;4.53;;
44328;SDS011;30039;51.462;6.892;2024-03-25T04:07:58;12.43;;;3.78;;
44328;SDS011;30039;51.462;6.892;2024-03-25T04:10:44;18.92;;;4.38;;
44328;SDS011;30039;51.462;6.892;2024-03-25T04:13:30;14.98;;;4.80;;
44328;SDS011;30039;51.462;6.892;2024-03-25T04:16:15;14.65;;;4.80;;
44328;SDS011;30039;51.462;6.892;2024-03-25T04:19:01;11.80;;;3.78;;
44328;SDS011;30039;51.462;6.892;2024-03-25T04:21:46;18.58;;;4.03;;
44328;SDS011;30039;51.462;6.892;2024-03-25T04:24:32;13.77;;;3.88;;
44328;SDS011;30039;51.462;6.892;2024-03-25T04:27:19;13.50;;;4.00;;
44328;SDS011;30039;51.462;6.892;2024-03-25T04:30:07;14.35;;;3.78;;
44328;SDS011;30039;51.462;6.892;2024-03-25T04:32:53;16.17;;;3.85;;
44328;SDS011;30039;51.462;6.892;2024-03-25T04:35:39;14.35;;;4.15;;
44328;SDS011;30039;51.462;6.892;2024-03-25T04:38:24;14.80;;;3.60;;
44328;SDS011;30039;51.462;6.892;2024-03-25T04:41:10;20.42;;;4.38;;
44328;SDS011;30039;51.462;6.892;2024-03-25T04:43:55;16.77;;;5.50;;
44328;SDS011;30039;51.462;6.892;2024-03-25T04:46:41;19.17;;;5.35;;
44328;SDS011;30039;51.462;6.892;2024-03-25T04:49:26;25.02;;;5.53;;
44328;SDS011;30039;51.462;6.892;2024-03-25T04:52:12;22.88;;;5.80;;
44328;SDS011;30039;51.462;6.892;2024-03-25T04:55:02;22.38;;;5.80;;
44328;SDS011;30039;51.462;6.892;2024-03-25T04:57:47;18.35;;;5.32;;
44328;SDS011;30039;51.462;6.892;2024-03-25T05:00:33;20.77;;;5.95;;
44328;SDS011;30039;51.462;6.892;2024-03-25T05:03:18;22.92;;;6.20;;
44328;SDS011;30039;51.462;6.892;2024-03-25T05:06:04;16.73;;;5.70;;
44328;SDS011;30039;51.462;6.892;2024-03-25T05:08:50;30.70;;;5.70;;
44328;SDS011;30039;51.462;6.892;2024-03-25T05:11:36;14.07;;;4.80;;
44328;SDS011;30039;51.462;6.892;2024-03-25T05:14:22;18.58;;;5.53;;
44328;SDS011;30039;51.462;6.892;2024-03-25T05:17:07;20.55;;;5.55;;
44328;SDS011;30039;51.462;6.892;2024-03-25T05:19:54;19.52;;;5.45;;
44328;SDS011;30039;51.462;6.892;2024-03-25T05:22:40;20.15;;;4.72;;
44328;SDS011;30039;51.462;6.892;2024-03-25T05:25:25;21.65;;;4.93;;
44328;SDS011;30039;51.462;6.892;2024-03-25T05:28:14;18.55;;;4.88;;
44328;SDS011;30039;51.462;6.892;2024-03-25T05:31:08;20.83;;;5.35;;
44328;SDS011;30039;51.462;6.892;2024-03-25T05:33:54;13.73;;;4.53;;
44328;SDS011;30039;51.462;6.892;2024-03-25T05:36:40;15.82;;;5.07;;
44328;SDS011;30039;51.462;6.892;2024-03-25T05:39:25;18.15;;;4.70;;
44328;SDS011;30039;51.462;6.892;2024-03-25T05:42:11;20.65;;;4.72;;
44328;SDS011;30039;51.462;6.892;2024-03-25T05:44:56;14.93;;;4.82;;
44328;SDS011;30039;51.462;6.892;2024-03-25T05:47:42;18.42;;;5.25;;
44328;SDS011;30039;51.462;6.892;2024-03-25T05:50:28;20.42;;;5.25;;
44328;SDS011;30039;51.462;6.892;2024-03-25T05:53:13;20.50;;;5.30;;
44328;SDS011;30039;51.462;6.892;2024-03-25T05:55:59;15.23;;;4.75;;
44328;SDS011;30039;51.462;6.892;2024-03-25T05:58:44;13.80;;;4.25;;
44328;SDS011;30039;51.462;6.892;2024-03-25T06:01:30;13.98;;;5.18;;
44328;SDS011;30039;51.462;6.892;2024-03-25T06:04:15;18.23;;;5.13;;
44328;SDS011;30039;51.462;6.892;2024-03-25T06:07:01;22.48;;;5.57;;
44328;SDS011;30039;51.462;6.892;2024-03-25T06:09:46;19.95;;;4.57;;
44328;SDS011;30039;51.462;6.892;2024-03-25T06:12:32;19.88;;;5.05;;
44328;SDS011;30039;51.462;6.892;2024-03-25T06:15:17;18.42;;;5.28;;
44328;SDS011;30039;51.462;6.892;2024-03-25T06:18:03;19.27;;;5.32;;
44328;SDS011;30039;51.462;6.892;2024-03-25T06:20:48;22.10;;;6.18;;
44328;SDS011;30039;51.462;6.892;2024-03-25T06:23:34;23.08;;;5.90;;
44328;SDS011;30039;51.462;6.892;2024-03-25T06:26:19;16.27;;;5.55;;
44328;SDS011;30039;51.462;6.892;2024-03-25T06:29:05;14.88;;;5.47;;
44328;SDS011;30039;51.462;6.892;2024-03-25T06:31:51;14.13;;;4.90;;
44328;SDS011;30039;51.462;6.892;2024-03-25T06:34:55;17.83;;;5.73;;
44328;SDS011;30039;51.462;6.892;2024-03-25T06:37:45;20.90;;;5.75;;
44328;SDS011;30039;51.462;6.892;2024-03-25T06:40:30;23.30;;;6.22;;
44328;SDS011;30039;51.462;6.892;2024-03-25T06:43:16;16.90;;;5.30;;
44328;SDS011;30039;51.462;6.892;2024-03-25T06:46:04;24.35;;;6.35;;
44328;SDS011;30039;51.462;6.892;2024-03-25T06:48:49;16.50;;;5.55;;
44328;SDS011;30039;51.462;6.892;2024-03-25T06:51:37;15.13;;;5.57;;
44328;SDS011;30039;51.462;6.892;2024-03-25T06:54:23;14.93;;;6.68;;
44328;SDS011;30039;51.462;6.892;2024-03-25T06:57:08;21.90;;;5.50;;
44328;SDS011;30039;51.462;6.892;2024-03-25T06:59:54;19.38;;;5.32;;
44328;SDS011;30039;51.462;6.892;2024-03-25T07:02:40;20.42;;;6.30;;
44328;SDS011;30039;51.462;6.892;2024-03-25T07:05:25;22.85;;;4.93;;
44328;SDS011;30039;51.462;6.892;2024-03-25T07:08:11;19.35;;;6.15;;
44328;SDS011;30039;51.462;6.892;2024-03-25T07:10:57;24.02;;;5.60;;
44328;SDS011;30039;51.462;6.892;2024-03-25T07:13:42;20.38;;;5.43;;
44328;SDS011;30039;51.462;6.892;2024-03-25T07:16:28;21.10;;;5.53;;
44328;SDS011;30039;51.462;6.892;2024-03-25T07:19:13;24.35;;;5.60;;
44328;SDS011;30039;51.462;6.892;2024-03-25T07:21:59;19.67;;;5.07;;
44328;SDS011;30039;51.462;6.892;2024-03-25T07:24:44;14.73;;;4.35;;
44328;SDS011;30039;51.462;6.892;2024-03-25T07:27:30;18.10;;;4.70;;
44328;SDS011;30039;51.462;6.892;2024-03-25T07:30:15;18.77;;;4.53;;
44328;SDS011;30039;51.462;6.892;2024-03-25T07:33:01;18.88;;;4.88;;
44328;SDS011;30039;51.462;6.892;2024-03-25T07:35:46;24.70;;;5.63;;
44328;SDS011;30039;51.462;6.892;2024-03-25T07:38:32;16.70;;;4.63;;
44328;SDS011;30039;51.462;6.892;2024-03-25T07:41:18;20.42;;;4.85;;
44328;SDS011;30039;51.462;6.892;2024-03-25T07:44:03;16.20;;;4.55;;
44328;SDS011;30039;51.462;6.892;2024-03-25T07:46:49;15.82;;;5.10;;
44328;SDS011;30039;51.462;6.892;2024-03-25T07:49:35;14.35;;;4.47;;
44328;SDS011;30039;51.462;6.892;2024-03-25T07:52:20;17.70;;;4.55;;
44328;SDS011;30039;51.462;6.892;2024-03-25T07:55:06;13.73;;;4.22;;
44328;SDS011;30039;51.462;6.892;2024-03-25T07:57:52;17.33;;;3.97;;
44328;SDS011;30039;51.462;6.892;2024-03-25T08:00:38;13.10;;;3.50;;
44328;SDS011;30039;51.462;6.892;2024-03-25T08:03:23;17.20;;;4.63;;
44328;SDS011;30039;51.462;6.892;2024-03-25T08:06:10;15.38;;;3.95;;
44328;SDS011;30039;51.462;6.892;2024-03-25T08:08:56;10.15;;;3.60;;
44328;SDS011;30039;51.462;6.892;2024-03-25T08:11:41;15.02;;;3.85;;
44328;SDS011;30039;51.462;6.892;2024-03-25T08:14:28;11.82;;;3.72;;
44328;SDS011;30039;51.462;6.892;2024-03-25T08:17:14;10.05;;;2.97;;
44328;SDS011;30039;51.462;6.892;2024-03-25T08:19:59;10.35;;;3.15;;
44328;SDS011;30039;51.462;6.892;2024-03-25T08:22:45;11.93;;;3.25;;
44328;SDS011;30039;51.462;6.892;2024-03-25T08:25:31;10.27;;;3.08;;
44328;SDS011;30039;51.462;6.892;2024-03-25T08:28:17;13.07;;;3.55;;
44328;SDS011;30039;51.462;6.892;2024-03-25T08:31:02;17.15;;;3.42;;
44328;SDS011;30039;51.462;6.892;2024-03-25T08:33:48;9.73;;;2.13;;
44328;SDS011;30039;51.462;6.892;2024-03-25T08:36:33;9.10;;;2.38;;
44328;SDS011;30039;51.462;6.892;2024-03-25T08:39:19;9.88;;;2.35;;
44328;SDS011;30039;51.462;6.892;2024-03-25T08:42:06;10.00;;;2.13;;
44328;SDS011;30039;51.462;6.892;2024-03-25T08:44:51;11.02;;;2.45;;
44328;SDS011;30039;51.462;6.892;2024-03-25T08:47:37;12.63;;;2.38;;
44328;SDS011;30039;51.462;6.892;2024-03-25T08:50:24;12.13;;;1.85;;
44328;SDS011;30039;51.462;6.892;2024-03-25T08:53:09;11.25;;;1.80;;
44328;SDS011;30039;51.462;6.892;2024-03-25T08:55:55;10.00;;;1.40;;
44328;SDS011;30039;51.462;6.892;2024-03-25T08:58:40;6.85;;;1.40;;
44328;SDS011;30039;51.462;6.892;2024-03-25T09:01:26;10.90;;;1.83;;
44328;SDS011;30039;51.462;6.892;2024-03-25T09:04:12;9.63;;;1.80;;
44328;SDS011;30039;51.462;6.892;2024-03-25T09:06:57;8.00;;;1.70;;
44328;SDS011;30039;51.462;6.892;2024-03-25T09:09:43;8.35;;;1.88;;
44328;SDS011;30039;51.462;6.892;2024-03-25T09:12:47;10.65;;;2.10;;
44328;SDS011;30039;51.462;6.892;2024-03-25T09:15:33;9.57;;;2.58;;
44328;SDS011;30039;51.462;6.892;2024-03-25T09:18:18;6.55;;;1.92;;
44328;SDS011;30039;51.462;6.892;2024-03-25T09:21:04;8.60;;;3.38;;
44328;SDS011;30039;51.462;6.892;2024-03-25T09:23:50;11.13;;;3.47;;
44328;SDS011;30039;51.462;6.892;2024-03-25T09:26:36;8.85;;;2.70;;
44328;SDS011;30039;51.462;6.892;2024-03-25T09:29:21;10.93;;;2.70;;
44328;SDS011;30039;51.462;6.892;2024-03-25T09:32:07;6.82;;;2.35;;
44328;SDS011;30039;51.462;6.892;2024-03-25T09:34:52;9.80;;;3.03;;
44328;SDS011;30039;51.462;6.892;2024-03-25T09:37:38;8.60;;;2.58;;
44328;SDS011;30039;51.462;6.892;2024-03-25T09:40:24;7.75;;;2.20;;
44328;SDS011;30039;51.462;6.892;2024-03-25T09:43:14;5.65;;;2.38;;
44328;SDS011;30039;51.462;6.892;2024-03-25T09:46:02;9.70;;;2.45;;
44328;SDS011;30039;51.462;6.892;2024-03-25T09:48:48;7.93;;;2.53;;
44328;SDS011;30039;51.462;6.892;2024-03-25T09:51:34;5.88;;;1.90;;
44328;SDS011;30039;51.462;6.892;2024-03-25T09:54:20;10.88;;;2.40;;
44328;SDS011;30039;51.462;6.892;2024-03-25T09:57:06;8.50;;;2.30;;
44328;SDS011;30039;51.462;6.892;2024-03-25T09:59:53;9.93;;;2.05;;
44328;SDS011;30039;51.462;6.892;2024-03-25T10:02:39;7.80;;;2.22;;
44328;SDS011;30039;51.462;6.892;2024-03-25T10:05:25;6.07;;;2.58;;
44328;SDS011;30039;51.462;6.892;2024-03-25T10:08:10;4.82;;;2.03;;
44328;SDS011;30039;51.462;6.892;2024-03-25T10:10:56;9.30;;;2.38;;
44328;SDS011;30039;51.462;6.892;2024-03-25T10:13:41;7.00;;;1.98;;
44328;SDS011;30039;51.462;6.892;2024-03-25T10:16:27;4.53;;;1.85;;
44328;SDS011;30039;51.462;6.892;2024-03-25T10:19:13;7.95;;;2.30;;
44328;SDS011;30039;51.462;6.892;2024-03-25T10:22:05;6.10;;;1.88;;
44328;SDS011;30039;51.462;6.892;2024-03-25T10:24:50;7.57;;;1.77;;
44328;SDS011;30039;51.462;6.892;2024-03-25T10:27:36;9.85;;;2.20;;
44328;SDS011;30039;51.462;6.892;2024-03-25T10:30:22;7.63;;;1.77;;
44328;SDS011;30039;51.462;6.892;2024-03-25T10:33:07;5.38;;;1.60;;
44328;SDS011;30039;51.462;6.892;2024-03-25T10:35:53;5.63;;;1.85;;
44328;SDS011;30039;51.462;6.892;2024-03-25T10:38:39;6.78;;;1.98;;
44328;SDS011;30039;51.462;6.892;2024-03-25T10:41:24;4.72;;;1.83;;
44328;SDS011;30039;51.462;6.892;2024-03-25T10:44:11;6.72;;;1.48;;
44328;SDS011;30039;51.462;6.892;2024-03-25T10:46:58;25.15;;;2.92;;
44328;SDS011;30039;51.462;6.892;2024-03-25T10:49:46;5.22;;;1.70;;
44328;SDS011;30039;51.462;6.892;2024-03-25T10:52:33;6.20;;;2.08;;
44328;SDS011;30039;51.462;6.892;2024-03-25T10:55:20;7.03;;;1.70;;
44328;SDS011;30039;51.462;6.892;2024-03-25T10:58:07;6.03;;;1.80;;
44328;SDS011;30039;51.462;6.892;2024-03-25T11:00:53;4.45;;;1.58;;
44328;SDS011;30039;51.462;6.892;2024-03-25T11:03:41;6.57;;;1.75;;
44328;SDS011;30039;51.462;6.892;2024-03-25T11:06:27;5.13;;;1.40;;
44328;SDS011;30039;51.462;6.892;2024-03-25T11:09:22;4.30;;;1.60;;
44328;SDS011;30039;51.462;6.892;2024-03-25T11:12:11;5.20;;;1.85;;
44328;SDS011;30039;51.462;6.892;2024-03-25T11:14:57;4.85;;;1.60;;
44328;SDS011;30039;51.462;6.892;2024-03-25T11:17:48;5.70;;;1.88;;
44328;SDS011;30039;51.462;6.892;2024-03-25T11:20:34;7.75;;;1.98;;
44328;SDS011;30039;51.462;6.892;2024-03-25T11:23:20;5.97;;;1.92;;
44328;SDS011;30039;51.462;6.892;2024-03-25T11:26:05;5.82;;;1.92;;
44328;SDS011;30039;51.462;6.892;2024-03-25T11:28:51;4.15;;;2.10;;
44328;SDS011;30039;51.462;6.892;2024-03-25T11:31:39;5.10;;;1.60;;
44328;SDS011;30039;51.462;6.892;2024-03-25T11:34:24;6.63;;;1.90;;
44328;SDS011;30039;51.462;6.892;2024-03-25T11:37:10;6.32;;;1.60;;
44328;SDS011;30039;51.462;6.892;2024-03-25T11:40:02;6.68;;;2.13;;
44328;SDS011;30039;51.462;6.892;2024-03-25T11:42:49;5.68;;;1.73;;
44328;SDS011;30039;51.462;6.892;2024-03-25T11:45:35;4.35;;;1.52;;
44328;SDS011;30039;51.462;6.892;2024-03-25T11:48:21;6.78;;;2.05;;
44328;SDS011;30039;51.462;6.892;2024-03-25T11:51:07;4.22;;;1.67;;
44328;SDS011;30039;51.462;6.892;2024-03-25T11:53:56;8.57;;;1.90;;
44328;SDS011;30039;51.462;6.892;2024-03-25T11:56:41;7.32;;;1.73;;
44328;SDS011;30039;51.462;6.892;2024-03-25T11:59:28;10.27;;;1.90;;
44328;SDS011;30039;51.462;6.892;2024-03-25T12:02:17;5.18;;;2.03;;
44328;SDS011;30039;51.462;6.892;2024-03-25T12:05:05;7.07;;;1.92;;
44328;SDS011;30039;51.462;6.892;2024-03-25T12:07:54;3.80;;;1.83;;
44328;SDS011;30039;51.462;6.892;2024-03-25T12:10:40;4.97;;;1.60;;
44328;SDS011;30039;51.462;6.892;2024-03-25T12:13:44;7.25;;;1.50;;
44328;SDS011;30039;51.462;6.892;2024-03-25T12:16:30;4.00;;;1.55;;
44328;SDS011;30039;51.462;6.892;2024-03-25T12:19:17;5.93;;;1.55;;
44328;SDS011;30039;51.462;6.892;2024-03-25T12:22:04;6.95;;;1.38;;
44328;SDS011;30039;51.462;6.892;2024-03-25T12:24:49;5.00;;;1.73;;
44328;SDS011;30039;51.462;6.892;2024-03-25T12:27:36;5.82;;;1.63;;
44328;SDS011;30039;51.462;6.892;2024-03-25T12:30:22;4.05;;;1.50;;
44328;SDS011;30039;51.462;6.892;2024-03-25T12:33:07;8.40;;;1.77;;
44328;SDS011;30039;51.462;6.892;2024-03-25T12:35:53;5.55;;;1.38;;
44328;SDS011;30039;51.462;6.892;2024-03-25T12:38:39;7.93;;;1.90;;
44328;SDS011;30039;51.462;6.892;2024-03-25T12:41:25;6.10;;;1.85;;
44328;SDS011;30039;51.462;6.892;2024-03-25T12:44:12;5.50;;;1.58;;
44328;SDS011;30039;51.462;6.892;2024-03-25T12:46:58;5.57;;;1.65;;
44328;SDS011;30039;51.462;6.892;2024-03-25T12:49:44;5.28;;;1.83;;
44328;SDS011;30039;51.462;6.892;2024-03-25T12:52:29;5.00;;;1.50;;
44328;SDS011;30039;51.462;6.892;2024-03-25T12:55:15;6.53;;;1.83;;
44328;SDS011;30039;51.462;6.892;2024-03-25T12:58:00;7.88;;;2.08;;
44328;SDS011;30039;51.462;6.892;2024-03-25T13:00:47;4.70;;;1.90;;
44328;SDS011;30039;51.462;6.892;2024-03-25T13:03:33;5.13;;;1.75;;
44328;SDS011;30039;51.462;6.892;2024-03-25T13:06:18;6.65;;;1.40;;
44328;SDS011;30039;51.462;6.892;2024-03-25T13:09:04;7.15;;;1.77;;
44328;SDS011;30039;51.462;6.892;2024-03-25T13:11:52;3.20;;;1.33;;
44328;SDS011;30039;51.462;6.892;2024-03-25T13:14:38;7.00;;;1.80;;
44328;SDS011;30039;51.462;6.892;2024-03-25T13:17:23;4.10;;;1.70;;
44328;SDS011;30039;51.462;6.892;2024-03-25T13:20:09;5.85;;;1.50;;
44328;SDS011;30039;51.462;6.892;2024-03-25T13:22:55;10.13;;;1.58;;
44328;SDS011;30039;51.462;6.892;2024-03-25T13:25:44;7.20;;;1.85;;
44328;SDS011;30039;51.462;6.892;2024-03-25T13:28:29;6.25;;;1.98;;
44328;SDS011;30039;51.462;6.892;2024-03-25T13:31:15;5.32;;;1.60;;
44328;SDS011;30039;51.462;6.892;2024-03-25T13:34:00;7.13;;;1.63;;
44328;SDS011;30039;51.462;6.892;2024-03-25T13:36:46;4.90;;;1.50;;
44328;SDS011;30039;51.462;6.892;2024-03-25T13:39:31;4.45;;;1.80;;
44328;SDS011;30039;51.462;6.892;2024-03-25T13:42:17;5.75;;;1.60;;
44328;SDS011;30039;51.462;6.892;2024-03-25T13:45:03;8.13;;;1.88;;
44328;SDS011;30039;51.462;6.892;2024-03-25T13:47:49;6.88;;;1.40;;
44328;SDS011;30039;51.462;6.892;2024-03-25T13:50:35;5.55;;;1.70;;
44328;SDS011;30039;51.462;6.892;2024-03-25T13:53:20;6.32;;;1.60;;
44328;SDS011;30039;51.462;6.892;2024-03-25T13:56:06;4.25;;;1.38;;
44328;SDS011;30039;51.462;6.892;2024-03-25T13:58:51;8.38;;;1.75;;
44328;SDS011;30039;51.462;6.892;2024-03-25T14:01:37;6.40;;;1.38;;
44328;SDS011;30039;51.462;6.892;2024-03-25T14:04:22;4.30;;;1.13;;
44328;SDS011;30039;51.462;6.892;2024-03-25T14:07:08;5.45;;;1.88;;
44328;SDS011;30039;51.462;6.892;2024-03-25T14:09:53;7.07;;;1.58;;
44328;SDS011;30039;51.462;6.892;2024-03-25T14:12:40;5.03;;;1.38;;
44328;SDS011;30039;51.462;6.892;2024-03-25T14:15:25;5.43;;;1.67;;
44328;SDS011;30039;51.462;6.892;2024-03-25T14:18:11;5.68;;;1.50;;
44328;SDS011;30039;51.462;6.892;2024-03-25T14:20:56;4.53;;;1.42;;
44328;SDS011;30039;51.462;6.892;2024-03-25T14:23:42;8.43;;;1.95;;
44328;SDS011;30039;51.462;6.892;2024-03-25T14:26:28;3.00;;;1.35;;
44328;SDS011;30039;51.462;6.892;2024-03-25T14:29:14;3.38;;;1.38;;
44328;SDS011;30039;51.462;6.892;2024-03-25T14:31:59;7.97;;;1.80;;
44328;SDS011;30039;51.462;6.892;2024-03-25T14:34:45;7.68;;;1.60;;
44328;SDS011;30039;51.462;6.892;2024-03-25T14:37:31;3.15;;;1.50;;
44328;SDS011;30039;51.462;6.892;2024-03-25T14:40:17;5.97;;;1.48;;
44328;SDS011;30039;51.462;6.892;2024-03-25T14:43:03;4.43;;;1.27;;
44328;SDS011;30039;51.462;6.892;2024-03-25T14:45:49;5.40;;;1.63;;
44328;SDS011;30039;51.462;6.892;2024-03-25T14:48:34;5.60;;;1.50;;
44328;SDS011;30039;51.462;6.892;2024-03-25T14:51:20;6.57;;;1.50;;
44328;SDS011;30039;51.462;6.892;2024-03-25T14:54:05;4.43;;;1.50;;
44328;SDS011;30039;51.462;6.892;2024-03-25T14:56:51;6.35;;;1.80;;
44328;SDS011;30039;51.462;6.892;2024-03-25T14:59:36;4.63;;;1.45;;
44328;SDS011;30039;51.462;6.892;2024-03-25T15:02:22;4.93;;;1.40;;
44328;SDS011;30039;51.462;6.892;2024-03-25T15:05:08;3.72;;;1.60;;
44328;SDS011;30039;51.462;6.892;2024-03-25T15:07:54;5.55;;;1.73;;
44328;SDS011;30039;51.462;6.892;2024-03-25T15:10:39;8.43;;;1.70;;
44328;SDS011;30039;51.462;6.892;2024-03-25T15:13:25;5.72;;;1.83;;
44328;SDS011;30039;51.462;6.892;2024-03-25T15:16:10;5.30;;;2.28;;
44328;SDS011;30039;51.462;6.892;2024-03-25T15:18:56;5.95;;;1.92;;
44328;SDS011;30039;51.462;6.892;2024-03-25T15:21:42;6.43;;;1.95;;
44328;SDS011;30039;51.462;6.892;2024-03-25T15:24:27;7.63;;;1.98;;
44328;SDS011;30039;51.462;6.892;2024-03-25T15:27:13;6.53;;;2.05;;
44328;SDS011;30039;51.462;6.892;2024-03-25T15:29:58;7.00;;;1.92;;
44328;SDS011;30039;51.462;6.892;2024-03-25T15:32:44;4.55;;;1.45;;
44328;SDS011;30039;51.462;6.892;2024-03-25T15:35:29;6.40;;;1.90;;
44328;SDS011;30039;51.462;6.892;2024-03-25T15:38:15;5.82;;;1.60;;
44328;SDS011;30039;51.462;6.892;2024-03-25T15:41:01;3.72;;;1.50;;
44328;SDS011;30039;51.462;6.892;2024-03-25T15:43:50;6.28;;;1.80;;
44328;SDS011;30039;51.462;6.892;2024-03-25T15:46:36;4.07;;;1.45;;
44328;SDS011;30039;51.462;6.892;2024-03-25T15:49:22;6.53;;;1.92;;
44328;SDS011;30039;51.462;6.892;2024-03-25T15:52:07;6.47;;;1.50;;
44328;SDS011;30039;51.462;6.892;2024-03-25T15:54:53;5.85;;;1.50;;
44328;SDS011;30039;51.462;6.892;2024-03-25T15:57:38;3.70;;;1.40;;
44328;SDS011;30039;51.462;6.892;2024-03-25T16:00:24;6.88;;;1.80;;
44328;SDS011;30039;51.462;6.892;2024-03-25T16:03:10;3.63;;;1.40;;
44328;SDS011;30039;51.462;6.892;2024-03-25T16:05:55;6.15;;;1.77;;
44328;SDS011;30039;51.462;6.892;2024-03-25T16:08:41;4.35;;;1.20;;
44328;SDS011;30039;51.462;6.892;2024-03-25T16:11:27;6.72;;;1.77;;
44328;SDS011;30039;51.462;6.892;2024-03-25T16:14:12;5.03;;;1.30;;
44328;SDS011;30039;51.462;6.892;2024-03-25T16:16:58;7.40;;;2.20;;
44328;SDS011;30039;51.462;6.892;2024-03-25T16:19:43;6.30;;;1.70;;
44328;SDS011;30039;51.462;6.892;2024-03-25T16:22:29;3.75;;;1.55;;
44328;SDS011;30039;51.462;6.892;2024-03-25T16:25:16;5.78;;;1.55;;
44328;SDS011;30039;51.462;6.892;2024-03-25T16:28:01;5.15;;;1.52;;
44328;SDS011;30039;51.462;6.892;2024-03-25T16:30:47;4.47;;;1.42;;
44328;SDS011;30039;51.462;6.892;2024-03-25T16:33:32;6.10;;;1.20;;